Date,TemperatureHighF,TemperatureAvgF,TemperatureLowF,DewpointHighF,DewpointAvgF,DewpointLowF,HumidityHigh,HumidityAvg,HumidityLow,PressureMaxIn,PressureMinIn,WindSpeedMaxMPH,WindSpeedAvgMPH,GustSpeedMaxMPH,PrecipitationSumIn
2012-12-1,49,38,30,47,38,30,100,99,93,30.46,30.35,4,0,9,0.00
2012-12-2,55,43,33,52,43,33,100,99,88,30.40,30.15,6,0,11,0.01
2012-12-3,66,51,39,58,49,39,100,94,70,30.26,30.15,6,0,10,0.00
2012-12-4,67,54,44,60,51,44,100,93,67,30.24,30.01,12,1,12,0.00
2012-12-5,60,51,37,53,40,26,85,65,47,30.31,29.98,12,6,22,0.00
2012-12-6,44,33,24,31,28,24,100,85,59,30.40,30.27,10,1,11,0.01
2012-12-7,49,40,27,47,40,27,100,99,94,30.26,29.99,6,0,10,0.13
2012-12-8,53,47,44,53,47,44,100,100,100,30.03,29.91,5,0,9,0.02
2012-12-9,49,46,44,49,46,44,100,100,100,30.19,30.00,9,1,16,0.28
2012-12-10,60,52,43,60,52,43,100,100,100,29.98,29.58,7,0,14,0.02
2012-12-11,58,45,35,58,41,35,100,89,65,30.23,29.63,18,3,24,0.12
2012-12-12,45,36,31,38,34,31,100,93,63,30.43,30.23,6,0,9,0.00
2012-12-13,46,35,26,36,31,26,100,86,50,30.46,30.35,11,1,15,0.00
2012-12-14,53,34,22,37,30,22,100,88,53,30.35,30.21,11,1,12,0.01
2012-12-15,50,38,28,41,35,28,100,89,61,30.32,30.14,10,2,13,0.00
2012-12-16,49,44,38,47,44,38,100,99,92,30.15,29.86,7,1,11,0.20
2012-12-17,50,47,45,50,47,45,100,100,100,29.87,29.56,6,0,10,0.12
2012-12-18,57,48,37,55,44,35,100,88,64,29.80,29.53,15,4,21,0.02
2012-12-19,52,41,31,42,37,31,100,88,66,30.19,29.81,12,2,22,0.00
2012-12-20,47,39,31,47,37,31,100,93,70,30.22,29.52,12,3,20,0.60
2012-12-21,55,42,36,55,36,27,100,80,64,29.54,29.25,24,7,34,0.40
2012-12-22,42,37,31,30,27,25,78,67,55,30.02,29.54,18,6,33,0.01
2012-12-23,48,34,24,30,27,24,100,79,45,30.08,29.91,11,2,16,0.00
2012-12-24,40,32,25,37,32,25,100,97,78,30.11,29.91,9,1,12,0.16
2012-12-25,48,38,29,44,37,29,100,95,77,30.26,29.92,11,2,15,0.01
2012-12-26,47,36,31,47,36,31,100,100,97,30.27,29.36,15,2,27,0.85
2012-12-27,42,37,35,42,34,30,100,88,71,30.02,29.37,18,6,28,0.07
2012-12-28,42,35,29,35,32,28,100,89,69,30.15,30.01,10,2,20,0.00
2012-12-29,39,35,31,39,35,31,100,99,90,30.06,29.57,16,2,22,0.18
2012-12-30,40,35,28,34,28,24,88,75,58,30.33,29.81,17,7,32,0.00
2012-12-31,44,35,25,31,28,24,96,76,54,30.34,30.01,8,2,11,0.00